sensor_id;sensor_type;location;lat;lon;timestamp;P1;durP1;ratioP1;P2;durP2;ratioP2
2035;SDS011;23642;42.658;23.350;2024-02-26T00:01:52;115.50;;;107.00;;
2035;SDS011;23642;42.658;23.350;2024-02-26T00:04:19;113.77;;;105.80;;
2035;SDS011;23642;42.658;23.350;2024-02-26T00:06:46;114.70;;;106.50;;
2035;SDS011;23642;42.658;23.350;2024-02-26T00:09:16;115.33;;;107.13;;
2035;SDS011;23642;42.658;23.350;2024-02-26T00:11:43;116.87;;;108.47;;
2035;SDS011;23642;42.658;23.350;2024-02-26T00:14:10;115.67;;;106.77;;
2035;SDS011;23642;42.658;23.350;2024-02-26T00:16:39;117.87;;;109.13;;
2035;SDS011;23642;42.658;23.350;2024-02-26T00:19:06;112.43;;;104.30;;
2035;SDS011;23642;42.658;23.350;2024-02-26T00:21:33;116.20;;;107.30;;
2035;SDS011;23642;42.658;23.350;2024-02-26T00:24:00;114.20;;;105.77;;
2035;SDS011;23642;42.658;23.350;2024-02-26T00:26:28;117.83;;;108.83;;
2035;SDS011;23642;42.658;23.350;2024-02-26T00:28:55;115.80;;;107.13;;
2035;SDS011;23642;42.658;23.350;2024-02-26T00:31:22;119.53;;;110.53;;
2035;SDS011;23642;42.658;23.350;2024-02-26T00:33:49;118.40;;;109.57;;
2035;SDS011;23642;42.658;23.350;2024-02-26T00:36:16;119.93;;;110.47;;
2035;SDS011;23642;42.658;23.350;2024-02-26T00:38:43;120.97;;;112.00;;
2035;SDS011;23642;42.658;23.350;2024-02-26T00:41:15;119.27;;;110.10;;
2035;SDS011;23642;42.658;23.350;2024-02-26T00:43:44;123.57;;;114.03;;
2035;SDS011;23642;42.658;23.350;2024-02-26T00:46:11;118.47;;;109.57;;
2035;SDS011;23642;42.658;23.350;2024-02-26T00:48:37;116.80;;;108.30;;
2035;SDS011;23642;42.658;23.350;2024-02-26T00:51:04;116.27;;;107.50;;
2035;SDS011;23642;42.658;23.350;2024-02-26T00:53:32;115.50;;;107.10;;
2035;SDS011;23642;42.658;23.350;2024-02-26T00:55:59;118.67;;;109.60;;
2035;SDS011;23642;42.658;23.350;2024-02-26T00:58:26;116.27;;;106.57;;
2035;SDS011;23642;42.658;23.350;2024-02-26T01:00:55;115.60;;;107.50;;
2035;SDS011;23642;42.658;23.350;2024-02-26T01:03:21;118.03;;;109.03;;
2035;SDS011;23642;42.658;23.350;2024-02-26T01:05:48;117.40;;;108.60;;
2035;SDS011;23642;42.658;23.350;2024-02-26T01:08:15;117.83;;;109.50;;
2035;SDS011;23642;42.658;23.350;2024-02-26T01:10:42;115.70;;;106.90;;
2035;SDS011;23642;42.658;23.350;2024-02-26T01:13:09;114.87;;;106.90;;
2035;SDS011;23642;42.658;23.350;2024-02-26T01:15:36;115.87;;;107.60;;
2035;SDS011;23642;42.658;23.350;2024-02-26T01:18:05;117.97;;;109.17;;
2035;SDS011;23642;42.658;23.350;2024-02-26T01:20:32;116.50;;;108.03;;
2035;SDS011;23642;42.658;23.350;2024-02-26T01:22:59;115.90;;;107.50;;
2035;SDS011;23642;42.658;23.350;2024-02-26T01:25:26;120.07;;;110.97;;
2035;SDS011;23642;42.658;23.350;2024-02-26T01:27:53;117.20;;;109.10;;
2035;SDS011;23642;42.658;23.350;2024-02-26T01:30:20;118.00;;;109.83;;
2035;SDS011;23642;42.658;23.350;2024-02-26T01:32:47;118.70;;;110.27;;
2035;SDS011;23642;42.658;23.350;2024-02-26T01:35:15;118.97;;;110.67;;
2035;SDS011;23642;42.658;23.350;2024-02-26T01:37:43;119.90;;;111.27;;
2035;SDS011;23642;42.658;23.350;2024-02-26T01:40:10;120.50;;;112.00;;
2035;SDS011;23642;42.658;23.350;2024-02-26T01:42:39;120.33;;;111.03;;
2035;SDS011;23642;42.658;23.350;2024-02-26T01:45:06;121.20;;;112.40;;
2035;SDS011;23642;42.658;23.350;2024-02-26T01:47:48;122.33;;;113.33;;
2035;SDS011;23642;42.658;23.350;2024-02-26T01:50:18;121.77;;;112.80;;
2035;SDS011;23642;42.658;23.350;2024-02-26T01:52:47;119.10;;;110.27;;
2035;SDS011;23642;42.658;23.350;2024-02-26T01:55:15;120.30;;;111.40;;
2035;SDS011;23642;42.658;23.350;2024-02-26T01:57:42;121.00;;;111.60;;
2035;SDS011;23642;42.658;23.350;2024-02-26T02:00:11;123.27;;;114.07;;
2035;SDS011;23642;42.658;23.350;2024-02-26T02:02:39;121.63;;;112.37;;
2035;SDS011;23642;42.658;23.350;2024-02-26T02:05:10;120.97;;;112.13;;
2035;SDS011;23642;42.658;23.350;2024-02-26T02:07:40;121.60;;;112.70;;
2035;SDS011;23642;42.658;23.350;2024-02-26T02:10:07;120.47;;;111.10;;
2035;SDS011;23642;42.658;23.350;2024-02-26T02:12:34;120.83;;;112.07;;
2035;SDS011;23642;42.658;23.350;2024-02-26T02:15:05;121.60;;;112.33;;
2035;SDS011;23642;42.658;23.350;2024-02-26T02:17:32;122.60;;;113.50;;
2035;SDS011;23642;42.658;23.350;2024-02-26T02:19:59;123.43;;;113.57;;
2035;SDS011;23642;42.658;23.350;2024-02-26T02:22:27;121.67;;;112.43;;
2035;SDS011;23642;42.658;23.350;2024-02-26T02:24:54;119.00;;;110.47;;
2035;SDS011;23642;42.658;23.350;2024-02-26T02:27:21;117.77;;;109.03;;
2035;SDS011;23642;42.658;23.350;2024-02-26T02:29:49;123.33;;;113.67;;
2035;SDS011;23642;42.658;23.350;2024-02-26T02:32:16;118.03;;;109.43;;
2035;SDS011;23642;42.658;23.350;2024-02-26T02:34:45;120.60;;;111.60;;
2035;SDS011;23642;42.658;23.350;2024-02-26T02:37:12;120.30;;;111.50;;
2035;SDS011;23642;42.658;23.350;2024-02-26T02:39:40;121.13;;;112.43;;
2035;SDS011;23642;42.658;23.350;2024-02-26T02:42:08;120.30;;;110.87;;
2035;SDS011;23642;42.658;23.350;2024-02-26T02:44:35;120.73;;;111.80;;
2035;SDS011;23642;42.658;23.350;2024-02-26T02:47:02;120.07;;;110.90;;
2035;SDS011;23642;42.658;23.350;2024-02-26T02:49:29;118.10;;;109.33;;
2035;SDS011;23642;42.658;23.350;2024-02-26T02:51:56;120.37;;;111.23;;
2035;SDS011;23642;42.658;23.350;2024-02-26T02:54:24;119.63;;;111.03;;
2035;SDS011;23642;42.658;23.350;2024-02-26T02:56:53;119.03;;;110.47;;
2035;SDS011;23642;42.658;23.350;2024-02-26T02:59:19;122.67;;;113.30;;
2035;SDS011;23642;42.658;23.350;2024-02-26T03:01:46;122.17;;;113.30;;
2035;SDS011;23642;42.658;23.350;2024-02-26T03:04:13;120.03;;;111.27;;
2035;SDS011;23642;42.658;23.350;2024-02-26T03:06:40;120.07;;;111.07;;
2035;SDS011;23642;42.658;23.350;2024-02-26T03:09:07;121.57;;;112.67;;
2035;SDS011;23642;42.658;23.350;2024-02-26T03:11:34;120.07;;;111.03;;
2035;SDS011;23642;42.658;23.350;2024-02-26T03:14:02;121.27;;;112.33;;
2035;SDS011;23642;42.658;23.350;2024-02-26T03:16:30;122.67;;;112.97;;
2035;SDS011;23642;42.658;23.350;2024-02-26T03:18:57;121.67;;;112.50;;
2035;SDS011;23642;42.658;23.350;2024-02-26T03:21:23;125.23;;;115.70;;
2035;SDS011;23642;42.658;23.350;2024-02-26T03:23:51;126.97;;;117.10;;
2035;SDS011;23642;42.658;23.350;2024-02-26T03:26:18;124.30;;;115.10;;
2035;SDS011;23642;42.658;23.350;2024-02-26T03:28:45;121.60;;;112.13;;
2035;SDS011;23642;42.658;23.350;2024-02-26T03:31:13;122.97;;;113.60;;
2035;SDS011;23642;42.658;23.350;2024-02-26T03:33:40;126.10;;;116.70;;
2035;SDS011;23642;42.658;23.350;2024-02-26T03:36:07;127.70;;;118.07;;
2035;SDS011;23642;42.658;23.350;2024-02-26T03:38:34;120.83;;;112.07;;
2035;SDS011;23642;42.658;23.350;2024-02-26T03:41:01;122.80;;;114.00;;
2035;SDS011;23642;42.658;23.350;2024-02-26T03:43:28;122.47;;;112.80;;
2035;SDS011;23642;42.658;23.350;2024-02-26T03:45:55;123.90;;;114.70;;
2035;SDS011;23642;42.658;23.350;2024-02-26T03:48:24;122.80;;;113.80;;
2035;SDS011;23642;42.658;23.350;2024-02-26T03:50:51;122.13;;;112.33;;
2035;SDS011;23642;42.658;23.350;2024-02-26T03:53:18;126.97;;;117.10;;
2035;SDS011;23642;42.658;23.350;2024-02-26T03:55:45;123.50;;;114.43;;
2035;SDS011;23642;42.658;23.350;2024-02-26T03:58:12;127.57;;;118.30;;
2035;SDS011;23642;42.658;23.350;2024-02-26T04:00:39;123.87;;;114.67;;
2035;SDS011;23642;42.658;23.350;2024-02-26T04:03:09;125.70;;;116.70;;
2035;SDS011;23642;42.658;23.350;2024-02-26T04:05:38;121.57;;;112.90;;
2035;SDS011;23642;42.658;23.350;2024-02-26T04:08:06;126.50;;;116.93;;
2035;SDS011;23642;42.658;23.350;2024-02-26T04:10:33;126.90;;;117.70;;
2035;SDS011;23642;42.658;23.350;2024-02-26T04:13:03;125.50;;;116.30;;
2035;SDS011;23642;42.658;23.350;2024-02-26T04:15:32;126.63;;;117.53;;
2035;SDS011;23642;42.658;23.350;2024-02-26T04:17:59;124.87;;;115.80;;
2035;SDS011;23642;42.658;23.350;2024-02-26T04:20:27;125.00;;;115.90;;
2035;SDS011;23642;42.658;23.350;2024-02-26T04:22:55;125.40;;;116.33;;
2035;SDS011;23642;42.658;23.350;2024-02-26T04:25:22;127.93;;;118.30;;
2035;SDS011;23642;42.658;23.350;2024-02-26T04:27:49;124.03;;;114.80;;
2035;SDS011;23642;42.658;23.350;2024-02-26T04:30:16;121.53;;;112.87;;
2035;SDS011;23642;42.658;23.350;2024-02-26T04:32:43;128.50;;;118.80;;
2035;SDS011;23642;42.658;23.350;2024-02-26T04:35:10;124.67;;;115.87;;
2035;SDS011;23642;42.658;23.350;2024-02-26T04:37:40;125.93;;;116.90;;
2035;SDS011;23642;42.658;23.350;2024-02-26T04:40:08;125.10;;;115.80;;
2035;SDS011;23642;42.658;23.350;2024-02-26T04:42:36;132.13;;;122.63;;
2035;SDS011;23642;42.658;23.350;2024-02-26T04:45:03;126.57;;;117.30;;
2035;SDS011;23642;42.658;23.350;2024-02-26T04:47:31;129.87;;;120.23;;
2035;SDS011;23642;42.658;23.350;2024-02-26T04:50:01;127.43;;;117.83;;
2035;SDS011;23642;42.658;23.350;2024-02-26T04:52:29;131.80;;;122.00;;
2035;SDS011;23642;42.658;23.350;2024-02-26T04:54:56;126.77;;;117.13;;
2035;SDS011;23642;42.658;23.350;2024-02-26T04:57:26;130.43;;;120.03;;
2035;SDS011;23642;42.658;23.350;2024-02-26T04:59:53;135.70;;;125.20;;
2035;SDS011;23642;42.658;23.350;2024-02-26T05:02:20;131.93;;;122.17;;
2035;SDS011;23642;42.658;23.350;2024-02-26T05:04:47;131.37;;;121.70;;
2035;SDS011;23642;42.658;23.350;2024-02-26T05:07:14;127.30;;;117.80;;
2035;SDS011;23642;42.658;23.350;2024-02-26T05:09:42;129.53;;;120.17;;
2035;SDS011;23642;42.658;23.350;2024-02-26T05:12:09;131.77;;;122.17;;
2035;SDS011;23642;42.658;23.350;2024-02-26T05:14:38;128.63;;;119.00;;
2035;SDS011;23642;42.658;23.350;2024-02-26T05:17:07;129.60;;;120.00;;
2035;SDS011;23642;42.658;23.350;2024-02-26T05:19:34;128.07;;;118.97;;
2035;SDS011;23642;42.658;23.350;2024-02-26T05:22:01;126.87;;;117.23;;
2035;SDS011;23642;42.658;23.350;2024-02-26T05:24:27;127.93;;;118.07;;
2035;SDS011;23642;42.658;23.350;2024-02-26T05:26:55;125.40;;;116.80;;
2035;SDS011;23642;42.658;23.350;2024-02-26T05:29:22;125.40;;;116.90;;
2035;SDS011;23642;42.658;23.350;2024-02-26T05:31:50;129.13;;;119.23;;
2035;SDS011;23642;42.658;23.350;2024-02-26T05:34:19;125.67;;;117.07;;
2035;SDS011;23642;42.658;23.350;2024-02-26T05:36:48;126.17;;;116.97;;
2035;SDS011;23642;42.658;23.350;2024-02-26T05:39:15;124.27;;;115.57;;
2035;SDS011;23642;42.658;23.350;2024-02-26T05:41:42;128.30;;;118.60;;
2035;SDS011;23642;42.658;23.350;2024-02-26T05:44:10;127.63;;;118.43;;
2035;SDS011;23642;42.658;23.350;2024-02-26T05:46:37;127.30;;;118.57;;
2035;SDS011;23642;42.658;23.350;2024-02-26T05:49:05;132.30;;;122.73;;
2035;SDS011;23642;42.658;23.350;2024-02-26T05:51:33;127.70;;;118.40;;
2035;SDS011;23642;42.658;23.350;2024-02-26T05:54:00;133.17;;;122.37;;
2035;SDS011;23642;42.658;23.350;2024-02-26T05:56:27;130.17;;;120.43;;
2035;SDS011;23642;42.658;23.350;2024-02-26T05:58:54;129.10;;;119.50;;
2035;SDS011;23642;42.658;23.350;2024-02-26T06:01:21;131.50;;;121.47;;
2035;SDS011;23642;42.658;23.350;2024-02-26T06:03:48;135.23;;;124.67;;
2035;SDS011;23642;42.658;23.350;2024-02-26T06:06:16;134.57;;;123.27;;
2035;SDS011;23642;42.658;23.350;2024-02-26T06:08:43;129.20;;;119.50;;
2035;SDS011;23642;42.658;23.350;2024-02-26T06:11:10;128.87;;;119.23;;
2035;SDS011;23642;42.658;23.350;2024-02-26T06:13:37;127.67;;;118.30;;
2035;SDS011;23642;42.658;23.350;2024-02-26T06:16:04;132.70;;;123.27;;
2035;SDS011;23642;42.658;23.350;2024-02-26T06:18:31;131.10;;;122.10;;
2035;SDS011;23642;42.658;23.350;2024-02-26T06:20:58;130.20;;;121.37;;
2035;SDS011;23642;42.658;23.350;2024-02-26T06:23:26;133.67;;;123.60;;
2035;SDS011;23642;42.658;23.350;2024-02-26T06:25:53;133.97;;;124.67;;
2035;SDS011;23642;42.658;23.350;2024-02-26T06:28:20;135.03;;;124.83;;
2035;SDS011;23642;42.658;23.350;2024-02-26T06:30:47;140.53;;;128.40;;
2035;SDS011;23642;42.658;23.350;2024-02-26T06:33:15;132.83;;;123.00;;
2035;SDS011;23642;42.658;23.350;2024-02-26T06:35:43;134.40;;;123.97;;
2035;SDS011;23642;42.658;23.350;2024-02-26T06:38:10;137.33;;;126.73;;
2035;SDS011;23642;42.658;23.350;2024-02-26T06:40:40;135.43;;;124.90;;
2035;SDS011;23642;42.658;23.350;2024-02-26T06:43:07;136.83;;;126.50;;
2035;SDS011;23642;42.658;23.350;2024-02-26T06:45:33;136.33;;;126.23;;
2035;SDS011;23642;42.658;23.350;2024-02-26T06:48:00;137.27;;;127.10;;
2035;SDS011;23642;42.658;23.350;2024-02-26T06:50:27;133.43;;;123.17;;
2035;SDS011;23642;42.658;23.350;2024-02-26T06:52:54;137.17;;;126.47;;
2035;SDS011;23642;42.658;23.350;2024-02-26T06:55:21;136.53;;;126.43;;
2035;SDS011;23642;42.658;23.350;2024-02-26T06:57:51;135.23;;;124.97;;
2035;SDS011;23642;42.658;23.350;2024-02-26T07:00:18;136.37;;;126.00;;
2035;SDS011;23642;42.658;23.350;2024-02-26T07:02:45;137.27;;;127.07;;
2035;SDS011;23642;42.658;23.350;2024-02-26T07:05:12;133.57;;;123.97;;
2035;SDS011;23642;42.658;23.350;2024-02-26T07:07:38;140.50;;;129.97;;
2035;SDS011;23642;42.658;23.350;2024-02-26T07:10:05;140.53;;;130.80;;
2035;SDS011;23642;42.658;23.350;2024-02-26T07:12:33;138.87;;;129.20;;
2035;SDS011;23642;42.658;23.350;2024-02-26T07:15:01;141.40;;;131.53;;
2035;SDS011;23642;42.658;23.350;2024-02-26T07:17:28;138.37;;;128.53;;
2035;SDS011;23642;42.658;23.350;2024-02-26T07:19:55;139.97;;;129.70;;
2035;SDS011;23642;42.658;23.350;2024-02-26T07:22:22;140.43;;;130.47;;
2035;SDS011;23642;42.658;23.350;2024-02-26T07:24:49;141.30;;;130.90;;
2035;SDS011;23642;42.658;23.350;2024-02-26T07:27:18;136.00;;;126.60;;
2035;SDS011;23642;42.658;23.350;2024-02-26T07:29:51;138.13;;;128.30;;
2035;SDS011;23642;42.658;23.350;2024-02-26T07:32:19;134.70;;;125.27;;
2035;SDS011;23642;42.658;23.350;2024-02-26T07:34:47;135.27;;;125.63;;
2035;SDS011;23642;42.658;23.350;2024-02-26T07:37:15;138.40;;;128.63;;
2035;SDS011;23642;42.658;23.350;2024-02-26T07:39:42;140.97;;;129.67;;
2035;SDS011;23642;42.658;23.350;2024-02-26T07:42:09;142.27;;;131.07;;
2035;SDS011;23642;42.658;23.350;2024-02-26T07:44:36;135.90;;;125.80;;
2035;SDS011;23642;42.658;23.350;2024-02-26T07:47:03;136.27;;;126.93;;
2035;SDS011;23642;42.658;23.350;2024-02-26T07:49:32;144.63;;;132.97;;
2035;SDS011;23642;42.658;23.350;2024-02-26T07:51:58;147.60;;;136.23;;
2035;SDS011;23642;42.658;23.350;2024-02-26T07:54:25;141.40;;;131.70;;
2035;SDS011;23642;42.658;23.350;2024-02-26T07:56:52;135.67;;;126.57;;
2035;SDS011;23642;42.658;23.350;2024-02-26T07:59:21;140.87;;;130.60;;
2035;SDS011;23642;42.658;23.350;2024-02-26T08:01:50;138.03;;;128.23;;
2035;SDS011;23642;42.658;23.350;2024-02-26T08:04:17;135.63;;;126.43;;
2035;SDS011;23642;42.658;23.350;2024-02-26T08:06:46;142.60;;;132.60;;
2035;SDS011;23642;42.658;23.350;2024-02-26T08:09:13;141.30;;;131.60;;
2035;SDS011;23642;42.658;23.350;2024-02-26T08:12:00;142.57;;;132.27;;
2035;SDS011;23642;42.658;23.350;2024-02-26T08:14:31;135.60;;;126.50;;
2035;SDS011;23642;42.658;23.350;2024-02-26T08:16:58;138.50;;;129.23;;
2035;SDS011;23642;42.658;23.350;2024-02-26T08:19:25;138.10;;;128.70;;
2035;SDS011;23642;42.658;23.350;2024-02-26T08:21:53;139.00;;;129.80;;
2035;SDS011;23642;42.658;23.350;2024-02-26T08:24:21;143.47;;;133.47;;
2035;SDS011;23642;42.658;23.350;2024-02-26T08:26:47;144.77;;;134.10;;
2035;SDS011;23642;42.658;23.350;2024-02-26T08:29:16;139.33;;;129.53;;
2035;SDS011;23642;42.658;23.350;2024-02-26T08:31:42;145.20;;;135.00;;
2035;SDS011;23642;42.658;23.350;2024-02-26T08:34:10;143.35;;;133.05;;
2035;SDS011;23642;42.658;23.350;2024-02-26T08:36:37;148.83;;;137.80;;
2035;SDS011;23642;42.658;23.350;2024-02-26T08:39:05;139.77;;;129.87;;
2035;SDS011;23642;42.658;23.350;2024-02-26T08:41:34;134.70;;;125.47;;
2035;SDS011;23642;42.658;23.350;2024-02-26T08:44:03;137.17;;;127.97;;
2035;SDS011;23642;42.658;23.350;2024-02-26T08:46:30;141.73;;;132.00;;
2035;SDS011;23642;42.658;23.350;2024-02-26T08:48:59;135.97;;;126.77;;
2035;SDS011;23642;42.658;23.350;2024-02-26T08:51:33;136.70;;;126.73;;
2035;SDS011;23642;42.658;23.350;2024-02-26T08:54:00;141.17;;;131.60;;
2035;SDS011;23642;42.658;23.350;2024-02-26T08:56:31;141.17;;;131.30;;
2035;SDS011;23642;42.658;23.350;2024-02-26T08:59:00;137.27;;;128.37;;
2035;SDS011;23642;42.658;23.350;2024-02-26T09:01:28;140.10;;;130.60;;
2035;SDS011;23642;42.658;23.350;2024-02-26T09:03:57;137.30;;;127.57;;
2035;SDS011;23642;42.658;23.350;2024-02-26T09:06:24;141.83;;;132.20;;
2035;SDS011;23642;42.658;23.350;2024-02-26T09:08:51;142.63;;;133.03;;
2035;SDS011;23642;42.658;23.350;2024-02-26T09:11:18;147.27;;;136.80;;
2035;SDS011;23642;42.658;23.350;2024-02-26T09:13:47;141.95;;;130.75;;
2035;SDS011;23642;42.658;23.350;2024-02-26T09:16:16;137.67;;;127.80;;
2035;SDS011;23642;42.658;23.350;2024-02-26T09:18:43;143.48;;;132.98;;
2035;SDS011;23642;42.658;23.350;2024-02-26T09:21:10;141.18;;;130.68;;
2035;SDS011;23642;42.658;23.350;2024-02-26T09:23:37;142.97;;;132.13;;
2035;SDS011;23642;42.658;23.350;2024-02-26T09:26:07;140.27;;;130.27;;
2035;SDS011;23642;42.658;23.350;2024-02-26T09:28:35;142.03;;;132.33;;
2035;SDS011;23642;42.658;23.350;2024-02-26T09:31:05;138.77;;;129.57;;
2035;SDS011;23642;42.658;23.350;2024-02-26T09:33:32;136.07;;;127.37;;
2035;SDS011;23642;42.658;23.350;2024-02-26T09:36:04;138.60;;;129.70;;
2035;SDS011;23642;42.658;23.350;2024-02-26T09:38:35;139.60;;;129.70;;
2035;SDS011;23642;42.658;23.350;2024-02-26T09:41:03;139.10;;;130.00;;
2035;SDS011;23642;42.658;23.350;2024-02-26T09:43:34;140.53;;;131.03;;
2035;SDS011;23642;42.658;23.350;2024-02-26T09:46:10;138.57;;;129.23;;
2035;SDS011;23642;42.658;23.350;2024-02-26T09:48:38;140.20;;;130.97;;
2035;SDS011;23642;42.658;23.350;2024-02-26T09:51:05;140.17;;;130.90;;
2035;SDS011;23642;42.658;23.350;2024-02-26T09:53:33;138.50;;;129.57;;
2035;SDS011;23642;42.658;23.350;2024-02-26T09:56:04;139.30;;;129.80;;
2035;SDS011;23642;42.658;23.350;2024-02-26T09:58:41;139.87;;;130.00;;
2035;SDS011;23642;42.658;23.350;2024-02-26T10:01:13;138.83;;;129.57;;
2035;SDS011;23642;42.658;23.350;2024-02-26T10:03:42;140.97;;;131.43;;
2035;SDS011;23642;42.658;23.350;2024-02-26T10:06:14;140.90;;;130.90;;
2035;SDS011;23642;42.658;23.350;2024-02-26T10:08:41;138.33;;;129.17;;
2035;SDS011;23642;42.658;23.350;2024-02-26T10:11:10;139.90;;;130.80;;
2035;SDS011;23642;42.658;23.350;2024-02-26T10:13:37;137.95;;;129.18;;
2035;SDS011;23642;42.658;23.350;2024-02-26T10:16:04;138.00;;;129.07;;
2035;SDS011;23642;42.658;23.350;2024-02-26T10:21:19;139.60;;;130.50;;
2035;SDS011;23642;42.658;23.350;2024-02-26T10:23:47;139.47;;;130.43;;
2035;SDS011;23642;42.658;23.350;2024-02-26T10:26:15;137.77;;;128.67;;
2035;SDS011;23642;42.658;23.350;2024-02-26T10:28:42;140.95;;;131.65;;
2035;SDS011;23642;42.658;23.350;2024-02-26T10:31:10;140.80;;;131.57;;
2035;SDS011;23642;42.658;23.350;2024-02-26T10:33:38;141.57;;;132.07;;
2035;SDS011;23642;42.658;23.350;2024-02-26T10:36:07;139.63;;;130.30;;
2035;SDS011;23642;42.658;23.350;2024-02-26T10:38:35;140.77;;;131.87;;
2035;SDS011;23642;42.658;23.350;2024-02-26T10:41:04;140.85;;;131.65;;
2035;SDS011;23642;42.658;23.350;2024-02-26T10:43:33;135.90;;;126.70;;
2035;SDS011;23642;42.658;23.350;2024-02-26T10:46:00;135.63;;;125.93;;
2035;SDS011;23642;42.658;23.350;2024-02-26T10:48:27;140.50;;;130.17;;
2035;SDS011;23642;42.658;23.350;2024-02-26T10:50:54;138.30;;;129.30;;
2035;SDS011;23642;42.658;23.350;2024-02-26T10:53:23;139.77;;;130.37;;
2035;SDS011;23642;42.658;23.350;2024-02-26T10:56:00;141.80;;;132.50;;
2035;SDS011;23642;42.658;23.350;2024-02-26T10:58:30;135.60;;;126.40;;
2035;SDS011;23642;42.658;23.350;2024-02-26T11:00:58;140.70;;;131.73;;
2035;SDS011;23642;42.658;23.350;2024-02-26T11:03:25;139.80;;;130.70;;
2035;SDS011;23642;42.658;23.350;2024-02-26T11:05:57;143.07;;;133.57;;
2035;SDS011;23642;42.658;23.350;2024-02-26T11:08:26;142.33;;;133.03;;
2035;SDS011;23642;42.658;23.350;2024-02-26T11:10:54;144.10;;;134.47;;
2035;SDS011;23642;42.658;23.350;2024-02-26T11:13:23;141.97;;;132.33;;
2035;SDS011;23642;42.658;23.350;2024-02-26T11:15:55;138.63;;;129.00;;
2035;SDS011;23642;42.658;23.350;2024-02-26T11:18:26;143.70;;;134.37;;
2035;SDS011;23642;42.658;23.350;2024-02-26T11:20:56;141.53;;;132.23;;
2035;SDS011;23642;42.658;23.350;2024-02-26T11:23:27;138.57;;;129.47;;
2035;SDS011;23642;42.658;23.350;2024-02-26T11:25:54;141.30;;;132.20;;
2035;SDS011;23642;42.658;23.350;2024-02-26T11:28:24;139.23;;;130.03;;
2035;SDS011;23642;42.658;23.350;2024-02-26T11:30:55;138.03;;;129.23;;
2035;SDS011;23642;42.658;23.350;2024-02-26T11:33:25;133.98;;;125.05;;
2035;SDS011;23642;42.658;23.350;2024-02-26T11:35:52;139.67;;;130.17;;
2035;SDS011;23642;42.658;23.350;2024-02-26T11:38:20;139.00;;;129.60;;
2035;SDS011;23642;42.658;23.350;2024-02-26T11:40:50;143.17;;;133.77;;
2035;SDS011;23642;42.658;23.350;2024-02-26T11:43:17;140.77;;;131.03;;
2035;SDS011;23642;42.658;23.350;2024-02-26T11:45:50;141.07;;;131.77;;
2035;SDS011;23642;42.658;23.350;2024-02-26T11:48:25;139.00;;;129.93;;
2035;SDS011;23642;42.658;23.350;2024-02-26T11:50:55;138.53;;;129.43;;
2035;SDS011;23642;42.658;23.350;2024-02-26T11:53:24;141.00;;;131.83;;
2035;SDS011;23642;42.658;23.350;2024-02-26T11:58:47;139.40;;;130.27;;
2035;SDS011;23642;42.658;23.350;2024-02-26T12:04:12;137.93;;;128.83;;
2035;SDS011;23642;42.658;23.350;2024-02-26T12:06:44;146.80;;;137.43;;
2035;SDS011;23642;42.658;23.350;2024-02-26T12:09:12;144.07;;;134.70;;
2035;SDS011;23642;42.658;23.350;2024-02-26T12:11:41;142.77;;;133.77;;
2035;SDS011;23642;42.658;23.350;2024-02-26T12:14:09;138.50;;;129.50;;
2035;SDS011;23642;42.658;23.350;2024-02-26T12:16:36;139.80;;;130.40;;
2035;SDS011;23642;42.658;23.350;2024-02-26T12:19:05;136.43;;;127.77;;
2035;SDS011;23642;42.658;23.350;2024-02-26T12:21:33;134.47;;;125.30;;
2035;SDS011;23642;42.658;23.350;2024-02-26T12:24:10;131.55;;;122.80;;
2035;SDS011;23642;42.658;23.350;2024-02-26T12:26:38;131.80;;;123.03;;
2035;SDS011;23642;42.658;23.350;2024-02-26T12:29:10;135.53;;;126.47;;
2035;SDS011;23642;42.658;23.350;2024-02-26T12:31:37;133.77;;;125.17;;
2035;SDS011;23642;42.658;23.350;2024-02-26T12:34:06;136.57;;;127.70;;
2035;SDS011;23642;42.658;23.350;2024-02-26T12:36:34;137.30;;;128.30;;
2035;SDS011;23642;42.658;23.350;2024-02-26T12:39:05;132.80;;;123.20;;
2035;SDS011;23642;42.658;23.350;2024-02-26T12:41:34;137.93;;;128.60;;
2035;SDS011;23642;42.658;23.350;2024-02-26T12:44:01;134.60;;;125.83;;
2035;SDS011;23642;42.658;23.350;2024-02-26T12:46:33;138.80;;;129.70;;
2035;SDS011;23642;42.658;23.350;2024-02-26T12:49:00;135.73;;;126.72;;
2035;SDS011;23642;42.658;23.350;2024-02-26T12:51:27;133.43;;;124.90;;
2035;SDS011;23642;42.658;23.350;2024-02-26T12:53:55;135.35;;;126.35;;
2035;SDS011;23642;42.658;23.350;2024-02-26T12:56:23;134.93;;;126.27;;
2035;SDS011;23642;42.658;23.350;2024-02-26T12:58:52;136.70;;;127.63;;
2035;SDS011;23642;42.658;23.350;2024-02-26T13:01:21;134.67;;;125.77;;
2035;SDS011;23642;42.658;23.350;2024-02-26T13:03:55;134.57;;;125.37;;
2035;SDS011;23642;42.658;23.350;2024-02-26T13:06:23;135.27;;;126.43;;
2035;SDS011;23642;42.658;23.350;2024-02-26T13:08:56;134.90;;;126.10;;
2035;SDS011;23642;42.658;23.350;2024-02-26T13:11:24;134.50;;;125.67;;
2035;SDS011;23642;42.658;23.350;2024-02-26T13:13:51;137.40;;;128.50;;
2035;SDS011;23642;42.658;23.350;2024-02-26T13:16:23;134.17;;;125.13;;
2035;SDS011;23642;42.658;23.350;2024-02-26T13:18:55;136.10;;;127.37;;
2035;SDS011;23642;42.658;23.350;2024-02-26T13:21:22;135.30;;;126.70;;
2035;SDS011;23642;42.658;23.350;2024-02-26T13:23:53;135.53;;;126.50;;
2035;SDS011;23642;42.658;23.350;2024-02-26T13:26:21;136.17;;;127.40;;
2035;SDS011;23642;42.658;23.350;2024-02-26T13:29:00;133.17;;;124.47;;
2035;SDS011;23642;42.658;23.350;2024-02-26T13:31:28;136.33;;;127.40;;
2035;SDS011;23642;42.658;23.350;2024-02-26T13:33:57;136.20;;;127.40;;
2035;SDS011;23642;42.658;23.350;2024-02-26T13:36:31;136.53;;;127.60;;
2035;SDS011;23642;42.658;23.350;2024-02-26T13:38:58;134.67;;;125.73;;
2035;SDS011;23642;42.658;23.350;2024-02-26T13:41:38;132.43;;;123.90;;
2035;SDS011;23642;42.658;23.350;2024-02-26T13:44:08;134.00;;;124.87;;
2035;SDS011;23642;42.658;23.350;2024-02-26T13:46:36;133.10;;;124.53;;
2035;SDS011;23642;42.658;23.350;2024-02-26T13:49:04;134.10;;;125.50;;
2035;SDS011;23642;42.658;23.350;2024-02-26T13:51:37;130.63;;;122.33;;
2035;SDS011;23642;42.658;23.350;2024-02-26T13:54:10;131.67;;;123.27;;
2035;SDS011;23642;42.658;23.350;2024-02-26T13:56:40;127.40;;;118.93;;
2035;SDS011;23642;42.658;23.350;2024-02-26T13:59:07;132.27;;;123.47;;
2035;SDS011;23642;42.658;23.350;2024-02-26T14:01:34;133.27;;;124.03;;
2035;SDS011;23642;42.658;23.350;2024-02-26T14:04:01;130.40;;;122.00;;
2035;SDS011;23642;42.658;23.350;2024-02-26T14:06:31;130.23;;;121.53;;
2035;SDS011;23642;42.658;23.350;2024-02-26T14:08:57;128.50;;;119.77;;
2035;SDS011;23642;42.658;23.350;2024-02-26T14:11:26;128.50;;;120.10;;